Terminal Aerodrome Forecast
Issued by NWS Blacksburg, VA

Home | Current Version | Previous Version | Text Only | Print | Product List | Glossary On
Versions: 1 2 3 4 5 6 7 8 9 10 11 12 13 14 15
000
FTUS41 KRNK 221614 AAA
TAFDAN
TAF AMD
KDAN 221614Z 2216/2312 36012KT P6SM SKC
      TEMPO 2216/2219 36012G22KT
     FM222000 36008KT P6SM SKC
     FM230000 35004KT P6SM FEW250=

USA.gov is the U.S. government's official web portal to all federal, state and local government web resources and services.